Time;durP1;ratioP1;P1;durP2;ratioP2;P2;SDS_P1;SDS_P2;PMS_P1;PMS_P2;Temp;Humidity;BMP_temperature;BMP_pressure;BME280_temperature;BME280_humidity;BME280_pressure;Samples;Min_cycle;Max_cycle;Signal;HPM_P1;HPM_P2
2021/07/02 00:00:19;;;;;;;;;23.00;21.50;;;;;22.90;48.03;101241.84;5057262;28;45453;-59
2021/07/02 00:02:45;;;;;;;;;23.00;21.25;;;;;22.90;47.85;101241.84;5057107;28;45564;-59
2021/07/02 00:05:12;;;;;;;;;21.25;19.00;;;;;22.90;48.06;101240.97;5056620;28;46116;-59
2021/07/02 00:07:37;;;;;;;;;22.50;20.50;;;;;22.90;47.87;101239.19;5056616;28;45430;-59
2021/07/02 00:10:05;;;;;;;;;19.50;19.25;;;;;22.90;47.99;101239.19;5056788;28;45478;-59
2021/07/02 00:12:31;;;;;;;;;28.75;22.00;;;;;22.91;48.20;101240.03;5056860;28;45418;-59
2021/07/02 00:14:56;;;;;;;;;20.75;20.75;;;;;22.86;47.95;101224.44;5056481;28;46672;-59
2021/07/02 00:17:22;;;;;;;;;21.25;21.25;;;;;22.87;47.89;101230.59;5056833;28;45324;-59
2021/07/02 00:19:47;;;;;;;;;19.75;19.75;;;;;22.89;48.18;101228.69;5056701;28;45412;-59
2021/07/02 00:22:12;;;;;;;;;18.25;18.25;;;;;22.89;48.07;101229.56;5056739;28;45307;-59
2021/07/02 00:24:38;;;;;;;;;23.75;22.25;;;;;22.89;47.88;101228.69;5056457;28;45327;-59
2021/07/02 00:27:03;;;;;;;;;23.25;20.75;;;;;22.89;47.84;101228.69;5055053;28;45304;-59
2021/07/02 00:29:29;;;;;;;;;21.25;21.25;;;;;22.90;48.00;101236.53;5056428;28;45239;-59
2021/07/02 00:31:54;;;;;;;;;22.25;22.25;;;;;22.90;47.86;101238.31;5056881;28;45644;-59
2021/07/02 00:34:20;;;;;;;;;22.00;20.25;;;;;22.89;47.92;101239.25;5056115;28;45198;-59
2021/07/02 00:36:45;;;;;;;;;25.25;21.75;;;;;22.87;47.85;101239.38;5056213;28;45165;-59
2021/07/02 00:39:11;;;;;;;;;22.50;22.50;;;;;22.89;48.07;101237.50;5056411;28;45360;-59
2021/07/02 00:41:36;;;;;;;;;22.75;20.00;;;;;22.90;48.03;101243.59;5056472;28;45620;-59
2021/07/02 00:44:02;;;;;;;;;20.50;18.50;;;;;22.90;48.00;101246.25;5056046;28;45368;-59
2021/07/02 00:46:28;;;;;;;;;20.00;19.75;;;;;22.89;48.14;101245.41;5056055;28;45339;-59
2021/07/02 00:48:53;;;;;;;;;23.00;21.75;;;;;22.89;48.00;101244.53;5056496;28;45352;-59
2021/07/02 00:51:20;;;;;;;;;24.00;21.25;;;;;22.87;48.05;101247.28;5055239;28;45556;-59
2021/07/02 00:53:46;;;;;;;;;21.75;21.75;;;;;22.90;48.06;101246.25;5055915;28;46114;-59
2021/07/02 00:56:15;;;;;;;;;0.25;0.00;;;;;22.89;48.09;101244.53;5054707;28;46123;-59
2021/07/02 00:58:40;;;;;;;;;21.75;21.25;;;;;22.90;48.07;101240.97;5056081;28;45318;-59
2021/07/02 01:01:06;;;;;;;;;23.00;21.00;;;;;22.90;48.17;101240.97;5056311;28;45220;-59
2021/07/02 01:03:31;;;;;;;;;25.00;22.75;;;;;22.89;47.84;101245.41;5057411;28;45220;-59
2021/07/02 01:05:57;;;;;;;;;26.00;24.50;;;;;22.89;48.08;101245.41;5059798;28;45287;-59
2021/07/02 01:08:23;;;;;;;;;24.00;22.00;;;;;22.89;48.21;101240.13;5059943;28;45441;-60
2021/07/02 01:10:49;;;;;;;;;21.00;20.75;;;;;22.89;48.19;101241.91;5059653;28;45532;-59
2021/07/02 01:13:14;;;;;;;;;23.00;21.50;;;;;22.89;48.06;101240.13;5059137;28;46195;-59
2021/07/02 01:15:40;;;;;;;;;21.00;19.75;;;;;22.87;48.32;101233.25;5059336;28;45422;-59
2021/07/02 01:18:06;;;;;;;;;24.50;23.50;;;;;22.90;48.20;101238.31;5059407;28;45428;-59
2021/07/02 01:20:32;;;;;;;;;22.25;21.00;;;;;22.89;48.38;101234.84;5059539;28;45407;-59
2021/07/02 01:22:57;;;;;;;;;25.25;20.25;;;;;22.87;48.15;101236.72;5059483;28;45349;-59
2021/07/02 01:25:28;;;;;;;;;24.50;21.75;;;;;22.87;48.18;101230.59;5059399;28;45243;-59
2021/07/02 01:27:53;;;;;;;;;25.25;23.75;;;;;22.87;48.25;101226.16;5059818;28;45827;-59
2021/07/02 01:30:19;;;;;;;;;22.00;21.75;;;;;22.88;48.11;101229.63;5059441;28;45606;-59
2021/07/02 01:32:44;;;;;;;;;22.25;19.50;;;;;22.89;48.19;101234.84;5059086;28;46410;-59
2021/07/02 01:35:10;;;;;;;;;26.50;24.25;;;;;22.85;48.22;101228.03;5059049;28;45503;-59
2021/07/02 01:37:35;;;;;;;;;24.50;23.00;;;;;22.88;48.24;101234.91;5059324;28;45307;-59
2021/07/02 01:40:02;;;;;;;;;21.25;19.50;;;;;22.88;48.20;101232.28;5059168;28;45389;-59
2021/07/02 01:42:27;;;;;;;;;23.25;22.25;;;;;22.89;48.30;101228.69;5059232;28;46392;-59
2021/07/02 01:44:53;;;;;;;;;22.00;20.50;;;;;22.89;48.28;101228.69;5058899;28;45304;-59
2021/07/02 01:47:18;;;;;;;;;23.25;22.00;;;;;22.89;48.18;101233.97;5059160;28;45608;-59
2021/07/02 01:49:43;;;;;;;;;21.50;21.50;;;;;22.89;48.34;101236.63;5057968;28;45402;-59
2021/07/02 01:52:09;;;;;;;;;26.75;24.25;;;;;22.87;48.12;101226.16;5058728;28;46564;-59
2021/07/02 01:54:34;;;;;;;;;24.50;21.25;;;;;22.87;48.19;101228.78;5057603;28;45922;-59
2021/07/02 01:57:05;;;;;;;;;24.50;22.25;;;;;22.89;48.38;101223.41;5059293;28;45261;-60
2021/07/02 01:59:30;;;;;;;;;20.25;20.25;;;;;22.89;48.32;101223.41;5058847;28;45545;-59
2021/07/02 02:01:55;;;;;;;;;20.25;19.75;;;;;22.88;48.07;101219.06;5058757;28;51968;-59
2021/07/02 02:04:21;;;;;;;;;24.25;22.00;;;;;22.87;48.56;101212.09;5058601;28;45450;-59
2021/07/02 02:06:46;;;;;;;;;23.00;23.00;;;;;22.87;48.26;101212.94;5058830;28;45311;-59
2021/07/02 02:09:11;;;;;;;;;25.00;23.00;;;;;22.87;48.27;101207.66;5058779;28;45331;-59
2021/07/02 02:11:37;;;;;;;;;21.25;20.50;;;;;22.85;48.17;101213.03;5058433;28;46412;-59
2021/07/02 02:14:03;;;;;;;;;26.25;25.25;;;;;22.89;48.53;101215.47;5058093;28;45454;-59
2021/07/02 02:16:28;;;;;;;;;23.00;22.00;;;;;22.87;48.19;101217.38;5058885;28;45480;-59
2021/07/02 02:18:54;;;;;;;;;26.75;26.00;;;;;22.88;48.38;101219.06;5058693;28;45214;-59
2021/07/02 02:21:19;;;;;;;;;20.75;20.25;;;;;22.87;48.64;101222.66;5058387;28;46026;-59
2021/07/02 02:23:44;;;;;;;;;21.25;20.75;;;;;22.85;48.52;101210.38;5058196;28;45240;-59
2021/07/02 02:26:10;;;;;;;;;18.75;18.75;;;;;22.88;48.42;101211.13;5058523;28;45426;-59
2021/07/02 02:28:35;;;;;;;;;24.50;23.75;;;;;22.88;48.15;101213.78;5058634;28;45450;-59
2021/07/02 02:31:01;;;;;;;;;21.50;20.50;;;;;22.87;48.38;101209.47;5057126;28;48427;-59
2021/07/02 02:33:26;;;;;;;;;26.00;23.75;;;;;22.88;48.27;101211.13;5058336;28;45331;-59
2021/07/02 02:35:52;;;;;;;;;24.25;21.75;;;;;22.88;48.44;101211.13;5058512;28;45456;-59
2021/07/02 02:38:17;;;;;;;;;26.25;22.75;;;;;22.87;48.41;101207.66;5058260;28;45581;-59
2021/07/02 02:40:42;;;;;;;;;22.25;22.25;;;;;22.88;48.42;101205.84;5058024;28;45388;-59
2021/07/02 02:43:08;;;;;;;;;22.00;20.75;;;;;22.85;48.25;101213.03;5057954;28;46802;-59
2021/07/02 02:45:33;;;;;;;;;24.25;23.75;;;;;22.85;48.48;101213.03;5058055;28;45327;-59
2021/07/02 02:47:58;;;;;;;;;23.25;22.50;;;;;22.86;48.50;101213.88;5057371;28;45429;-60
2021/07/02 02:50:24;;;;;;;;;22.50;20.00;;;;;22.85;48.50;101205.09;5057824;28;45420;-60
2021/07/02 02:52:49;;;;;;;;;20.25;18.25;;;;;22.85;48.34;101213.03;5058004;28;45334;-59
2021/07/02 02:55:14;;;;;;;;;24.00;22.00;;;;;22.85;48.67;101201.59;5057945;28;45311;-59
2021/07/02 02:57:40;;;;;;;;;22.25;22.00;;;;;22.85;48.52;101207.75;5058111;28;45426;-59
2021/07/02 03:00:08;;;;;;;;;20.25;19.00;;;;;22.87;48.58;101209.47;5057804;28;45348;-59
2021/07/02 03:02:34;;;;;;;;;24.75;23.25;;;;;22.86;48.59;101203.31;5057984;28;45886;-59
2021/07/02 03:04:59;;;;;;;;;25.00;24.25;;;;;22.85;48.49;101199.81;5058220;28;45296;-59
2021/07/02 03:07:24;;;;;;;;;23.25;22.75;;;;;22.85;48.46;101197.19;5058204;28;45244;-59
2021/07/02 03:09:50;;;;;;;;;24.00;22.50;;;;;22.86;48.36;101195.38;5057502;28;45209;-59
2021/07/02 03:12:15;;;;;;;;;25.75;23.75;;;;;22.85;48.55;101191.91;5057733;28;45260;-60
2021/07/02 03:14:41;;;;;;;;;26.75;25.50;;;;;22.87;48.73;101188.31;5057706;28;45216;-59
2021/07/02 03:17:06;;;;;;;;;22.00;20.25;;;;;22.84;48.41;101184.03;5057744;28;45500;-59
2021/07/02 03:19:31;;;;;;;;;19.25;18.25;;;;;22.84;48.54;101200.75;5057858;28;45259;-59
2021/07/02 03:21:57;;;;;;;;;19.25;19.25;;;;;22.87;48.75;101198.88;5057585;28;45281;-61
2021/07/02 03:24:22;;;;;;;;;23.75;22.50;;;;;22.85;48.69;101196.31;5057590;28;45466;-59
2021/07/02 03:26:48;;;;;;;;;21.50;21.50;;;;;22.87;48.73;101198.88;5056717;28;45376;-59
2021/07/02 03:29:13;;;;;;;;;24.00;22.25;;;;;22.84;48.60;101195.47;5057182;28;46063;-59
2021/07/02 03:31:39;;;;;;;;;22.50;22.25;;;;;22.85;48.56;101199.81;5057302;28;45458;-59
2021/07/02 03:34:04;;;;;;;;;22.00;22.00;;;;;22.86;48.56;101198.00;5057873;28;45394;-59
2021/07/02 03:36:30;;;;;;;;;26.00;24.25;;;;;22.83;48.61;101199.06;5057793;28;45644;-59
2021/07/02 03:38:56;;;;;;;;;22.75;21.25;;;;;22.87;48.66;101196.25;5056801;28;45530;-59
2021/07/02 03:41:21;;;;;;;;;22.75;21.75;;;;;22.86;48.62;101192.72;5057292;28;45383;-60
2021/07/02 03:43:47;;;;;;;;;22.00;21.50;;;;;22.84;48.40;101190.19;5056093;28;45358;-60
2021/07/02 03:46:12;;;;;;;;;23.25;21.00;;;;;22.85;48.61;101197.19;5057176;28;45607;-60
2021/07/02 03:48:37;;;;;;;;;27.75;23.75;;;;;22.85;48.59;101197.19;5057024;28;46221;-59
2021/07/02 03:51:03;;;;;;;;;23.00;22.25;;;;;22.80;48.68;101188.66;5057418;28;45286;-59
2021/07/02 03:53:29;;;;;;;;;23.50;20.50;;;;;22.85;48.50;101197.19;5057109;28;45432;-59
2021/07/02 03:55:55;;;;;;;;;23.25;21.25;;;;;22.85;48.62;101196.31;5057197;28;45609;-60
2021/07/02 03:58:20;;;;;;;;;28.00;25.50;;;;;22.85;48.61;101199.81;5056759;28;45794;-59
2021/07/02 04:00:45;;;;;;;;;23.75;23.25;;;;;22.85;48.61;101196.31;5055485;28;45477;-59
2021/07/02 04:03:11;;;;;;;;;23.75;22.75;;;;;22.86;48.91;101200.66;5056888;28;45575;-59
2021/07/02 04:05:40;;;;;;;;;27.75;23.00;;;;;22.86;48.71;101200.66;5056981;28;45454;-59
2021/07/02 04:08:05;;;;;;;;;25.50;21.75;;;;;22.83;48.69;101195.53;5056752;28;46154;-59
2021/07/02 04:10:31;;;;;;;;;21.00;20.75;;;;;22.87;48.49;101209.47;5056662;28;45470;-59
2021/07/02 04:12:56;;;;;;;;;22.75;21.25;;;;;22.85;48.79;101207.75;5056789;28;45323;-59
2021/07/02 04:15:21;;;;;;;;;26.25;24.25;;;;;22.84;48.76;101197.25;5056845;28;45391;-59
2021/07/02 04:17:47;;;;;;;;;23.50;21.75;;;;;22.87;48.69;101209.47;5056489;28;45475;-59
2021/07/02 04:20:12;;;;;;;;;23.50;22.50;;;;;22.86;48.85;101208.59;5056560;28;45380;-59
2021/07/02 04:22:38;;;;;;;;;23.75;22.75;;;;;22.85;48.81;101207.75;5056631;28;45366;-59
2021/07/02 04:25:07;;;;;;;;;24.50;21.00;;;;;22.85;48.94;101218.31;5057067;28;45171;-59
2021/07/02 04:27:32;;;;;;;;;24.25;21.00;;;;;22.87;48.77;101214.75;5056556;28;46089;-60
2021/07/02 04:29:58;;;;;;;;;24.00;24.00;;;;;22.86;48.62;101216.50;5056483;28;45445;-59
2021/07/02 04:32:23;;;;;;;;;23.75;20.75;;;;;22.87;48.84;101223.50;5071998;28;45437;-59
2021/07/02 04:34:49;;;;;;;;;22.50;20.00;;;;;22.87;48.77;101217.38;5056604;28;45624;-59
2021/07/02 04:37:14;;;;;;;;;25.00;20.00;;;;;22.86;48.71;101221.81;5055844;28;46171;-59
2021/07/02 04:39:40;;;;;;;;;21.50;21.50;;;;;22.87;49.08;101217.38;5055932;28;45451;-59
2021/07/02 04:42:06;;;;;;;;;24.50;23.25;;;;;22.85;49.04;101218.31;5055431;28;45403;-59
2021/07/02 04:44:31;;;;;;;;;22.50;22.50;;;;;22.88;48.90;101221.69;5056430;28;45576;-59
2021/07/02 04:46:57;;;;;;;;;25.25;22.25;;;;;22.87;48.73;101220.03;5056081;28;46316;-59
2021/07/02 04:49:22;;;;;;;;;26.00;23.00;;;;;22.88;48.96;101221.69;5056100;28;45505;-59
2021/07/02 04:51:48;;;;;;;;;25.75;22.25;;;;;22.89;48.99;101228.69;5056232;28;45390;-59
2021/07/02 04:54:13;;;;;;;;;21.25;21.25;;;;;22.84;48.86;101216.63;5056446;28;45481;-59
2021/07/02 04:56:39;;;;;;;;;24.50;22.25;;;;;22.90;48.79;101225.09;5055981;28;46368;-59
2021/07/02 04:59:04;;;;;;;;;23.25;22.75;;;;;22.89;48.72;101228.69;5056341;28;45220;-59
2021/07/02 05:01:29;;;;;;;;;24.75;23.75;;;;;22.89;49.22;101218.13;5056147;28;45317;-60
2021/07/02 05:03:55;;;;;;;;;23.50;21.25;;;;;22.90;49.02;101219.81;5056228;28;45508;-59
2021/07/02 05:06:20;;;;;;;;;23.50;22.00;;;;;22.90;48.93;101225.97;5055932;28;46129;-59
2021/07/02 05:08:46;;;;;;;;;24.00;21.25;;;;;22.91;49.05;101225.03;5055945;28;45321;-59
2021/07/02 05:11:12;;;;;;;;;23.50;20.75;;;;;22.90;48.85;101225.97;5056038;28;45227;-59
2021/07/02 05:13:39;;;;;;;;;26.00;23.50;;;;;22.92;48.74;101233.81;5056469;28;45300;-59
2021/07/02 05:16:05;;;;;;;;;23.75;21.50;;;;;22.92;49.04;101236.44;5054376;28;47359;-59
2021/07/02 05:18:30;;;;;;;;;26.50;23.00;;;;;22.92;49.01;101233.81;5055919;28;45933;-59
2021/07/02 05:20:56;;;;;;;;;23.00;22.00;;;;;22.92;49.00;101229.38;5056032;28;45331;-59
2021/07/02 05:23:21;;;;;;;;;24.25;22.25;;;;;22.92;48.98;101228.50;5056055;28;45416;-59
2021/07/02 05:25:46;;;;;;;;;26.00;23.75;;;;;22.92;49.08;101228.50;5055585;28;46072;-59
2021/07/02 05:28:12;;;;;;;;;22.50;21.00;;;;;22.91;48.89;101226.81;5055541;28;45347;-59
2021/07/02 05:30:37;;;;;;;;;20.50;20.50;;;;;22.93;48.98;101227.56;5056065;28;45391;-59
2021/07/02 05:33:03;;;;;;;;;23.00;21.50;;;;;22.94;49.06;101224.00;5055860;28;45541;-60
2021/07/02 05:35:28;;;;;;;;;24.00;23.25;;;;;22.92;49.05;101216.16;5054045;28;48310;-59
2021/07/02 05:37:54;;;;;;;;;24.75;23.25;;;;;22.93;49.02;101220.47;5055364;28;45236;-58
2021/07/02 05:40:19;;;;;;;;;21.50;20.00;;;;;22.92;49.05;101217.94;5054102;28;45347;-59
2021/07/02 05:42:45;;;;;;;;;22.50;22.50;;;;;22.93;48.97;101219.66;5055754;28;45383;-59
2021/07/02 05:45:11;;;;;;;;;23.50;22.00;;;;;22.93;49.10;101225.78;5055705;28;45495;-59
2021/07/02 05:47:51;;;;;;;;;22.25;21.75;;;;;22.96;49.06;101224.75;5055699;28;45231;-59
2021/07/02 05:50:18;;;;;;;;;23.50;22.75;;;;;22.96;48.96;101219.47;5058031;28;45406;-59
2021/07/02 05:52:45;;;;;;;;;23.25;22.25;;;;;22.96;49.21;101230.03;5059099;28;45403;-59
2021/07/02 05:55:12;;;;;;;;;23.25;22.25;;;;;22.95;49.21;101225.69;5057277;28;45299;-59
2021/07/02 05:57:41;;;;;;;;;26.00;24.25;;;;;22.95;49.04;101231.81;5058979;28;45300;-59
2021/07/02 06:00:08;;;;;;;;;22.50;20.75;;;;;22.97;48.78;101237.03;5057714;28;45387;-59
2021/07/02 06:02:33;;;;;;;;;21.75;20.25;;;;;22.95;49.17;101233.63;5058921;28;45382;-59
2021/07/02 06:04:59;;;;;;;;;20.75;20.50;;;;;22.96;49.01;101230.88;5058760;28;46080;-59
2021/07/02 06:07:24;;;;;;;;;26.25;24.50;;;;;22.93;48.98;101225.78;5058612;28;45811;-60
2021/07/02 06:09:49;;;;;;;;;23.75;23.00;;;;;22.96;49.25;101235.34;5058605;28;45432;-59
2021/07/02 06:12:15;;;;;;;;;20.25;20.25;;;;;22.95;49.26;101230.97;5058499;28;45236;-59
2021/07/02 06:14:40;;;;;;;;;28.50;24.75;;;;;22.96;49.34;101230.03;5058534;28;45254;-59
2021/07/02 06:17:05;;;;;;;;;25.25;24.25;;;;;22.98;49.28;101238.75;5058188;28;45374;-60
2021/07/02 06:19:31;;;;;;;;;26.00;23.00;;;;;22.97;49.17;101226.47;5058491;28;45624;-59
2021/07/02 06:21:56;;;;;;;;;23.25;23.25;;;;;22.97;49.08;101229.94;5058574;28;45433;-59
2021/07/02 06:24:22;;;;;;;;;24.00;23.00;;;;;22.98;48.94;101228.16;5058297;28;45392;-59
2021/07/02 06:26:47;;;;;;;;;25.50;23.25;;;;;22.96;49.22;101220.31;5058211;28;45340;-59
2021/07/02 06:29:12;;;;;;;;;22.50;22.50;;;;;22.98;49.24;101223.72;5058740;28;45319;-60
2021/07/02 06:31:38;;;;;;;;;23.50;20.25;;;;;22.98;49.17;101220.25;5058717;28;45354;-59
2021/07/02 06:34:03;;;;;;;;;22.00;22.00;;;;;22.98;49.24;101229.00;5057923;28;47678;-59
2021/07/02 06:36:29;;;;;;;;;19.25;19.00;;;;;22.98;49.31;101230.81;5058189;28;45441;-59
2021/07/02 06:38:54;;;;;;;;;23.75;21.75;;;;;23.00;49.24;101227.13;5057934;28;45466;-59
2021/07/02 06:41:21;;;;;;;;;25.50;22.50;;;;;23.01;49.19;101230.59;5058403;28;45303;-59
2021/07/02 06:43:46;;;;;;;;;24.25;23.00;;;;;23.01;49.31;101228.84;5057986;28;45515;-60
2021/07/02 06:46:12;;;;;;;;;21.75;20.75;;;;;23.03;49.08;101226.09;5058255;28;45256;-59
2021/07/02 06:48:38;;;;;;;;;28.00;22.50;;;;;23.04;49.28;101232.25;5056858;28;45380;-60
2021/07/02 06:51:03;;;;;;;;;25.75;24.50;;;;;23.03;49.24;101228.72;5058093;28;45509;-59
2021/07/02 06:53:29;;;;;;;;;27.75;25.25;;;;;23.04;49.37;101233.06;5057852;28;45923;-60
2021/07/02 06:55:54;;;;;;;;;21.25;19.25;;;;;23.05;49.30;101233.91;5056573;28;45895;-59
2021/07/02 06:58:20;;;;;;;;;24.75;21.25;;;;;23.05;49.13;101234.78;5057906;28;45335;-59
2021/07/02 07:00:46;;;;;;;;;21.50;21.50;;;;;23.07;49.58;101232.91;5058107;28;45405;-59
2021/07/02 07:03:12;;;;;;;;;20.50;20.50;;;;;23.07;49.41;101242.59;5058064;28;46670;-61
2021/07/02 07:05:38;;;;;;;;;20.50;18.50;;;;;23.08;49.41;101239.03;5057702;28;45321;-58
2021/07/02 07:08:07;;;;;;;;;23.75;22.25;;;;;23.09;49.32;101244.25;5057871;28;45467;-59
2021/07/02 07:10:33;;;;;;;;;22.50;21.50;;;;;23.09;49.49;101244.25;5057917;28;45299;-59
2021/07/02 07:12:58;;;;;;;;;27.00;24.50;;;;;23.11;49.20;101250.25;5057556;28;46233;-58
2021/07/02 07:15:25;;;;;;;;;21.50;21.00;;;;;23.10;49.18;101248.56;5057460;28;45255;-58
2021/07/02 07:17:51;;;;;;;;;22.00;19.00;;;;;23.11;49.56;101250.25;5057732;28;45759;-59
2021/07/02 07:20:17;;;;;;;;;24.00;23.25;;;;;23.14;49.47;101241.31;5057718;28;45569;-60
2021/07/02 07:22:42;;;;;;;;;25.50;23.00;;;;;23.11;49.36;101237.03;5057709;28;45351;-60
2021/07/02 07:25:08;;;;;;;;;27.00;23.25;;;;;23.16;49.35;101242.91;5057413;28;45343;-59
2021/07/02 07:27:33;;;;;;;;;27.00;24.25;;;;;23.17;49.36;101238.47;5057569;28;45341;-60
2021/07/02 07:30:00;;;;;;;;;23.00;19.00;;;;;23.17;49.37;101244.63;5057427;28;45504;-60
2021/07/02 07:32:26;;;;;;;;;27.00;25.25;;;;;23.19;49.76;101239.25;5039313;28;47951;-59
2021/07/02 07:34:55;;;;;;;;;22.50;22.50;;;;;23.21;49.47;101239.16;5057239;28;45309;-59
2021/07/02 07:37:22;;;;;;;;;24.25;23.25;;;;;23.22;49.32;101247.00;5057232;28;45221;-59
2021/07/02 07:39:48;;;;;;;;;21.50;21.50;;;;;23.24;49.54;101244.28;5057305;28;45434;-59
2021/07/02 07:42:14;;;;;;;;;23.25;21.50;;;;;23.23;49.31;101238.16;5057441;28;46785;-59
2021/07/02 07:44:40;;;;;;;;;23.50;23.50;;;;;23.25;49.35;101243.31;5057006;28;45303;-60
2021/07/02 07:47:05;;;;;;;;;24.75;23.00;;;;;23.26;49.39;101247.69;5057186;28;45555;-60
2021/07/02 07:49:31;;;;;;;;;24.50;23.50;;;;;23.28;49.34;101249.28;5056126;28;45309;-59
2021/07/02 07:52:24;;;;;;;;;22.00;20.50;;;;;23.29;49.25;101252.78;5056983;28;46111;-59
2021/07/02 07:54:49;;;;;;;;;22.50;22.00;;;;;23.29;49.30;101255.44;5056929;28;45277;-59
2021/07/02 07:57:14;;;;;;;;;19.50;17.50;;;;;23.29;49.56;101253.63;5057296;28;45369;-59
2021/07/02 07:59:40;;;;;;;;;24.50;19.75;;;;;23.30;49.63;101251.84;5057163;28;45566;-59
2021/07/02 08:02:05;;;;;;;;;24.25;22.00;;;;;23.30;49.30;101252.69;5056618;28;45755;-59
2021/07/02 08:04:30;;;;;;;;;22.00;20.50;;;;;23.29;49.41;101250.16;5056710;28;45473;-59
2021/07/02 08:06:56;;;;;;;;;24.50;23.50;;;;;23.30;49.54;101254.50;5056867;28;45334;-59
2021/07/02 08:09:21;;;;;;;;;26.25;25.50;;;;;23.33;49.46;101258.75;5056975;28;45446;-59
2021/07/02 08:11:47;;;;;;;;;25.00;22.00;;;;;23.33;49.33;101254.28;5056375;28;45634;-59
2021/07/02 08:14:13;;;;;;;;;26.75;26.25;;;;;23.33;49.51;101259.56;5056719;28;45395;-59
2021/07/02 08:16:40;;;;;;;;;24.75;23.25;;;;;23.31;49.37;101264.97;5056812;28;45261;-59
2021/07/02 08:19:07;;;;;;;;;20.00;19.75;;;;;23.34;49.30;101260.44;5055490;28;45586;-59
2021/07/02 08:21:33;;;;;;;;;25.25;23.25;;;;;23.34;49.48;101252.50;5056444;28;45998;-59
2021/07/02 08:23:58;;;;;;;;;21.25;18.00;;;;;23.35;49.31;101256.84;5056495;28;45454;-59
2021/07/02 08:26:25;;;;;;;;;24.50;21.25;;;;;23.36;49.34;101264.69;5056557;28;45445;-59
2021/07/02 08:31:34;;;;;;;;;24.25;24.25;;;;;23.36;49.18;101261.19;5056249;28;45735;-59
2021/07/02 08:34:01;;;;;;;;;22.75;22.50;;;;;23.34;49.20;101261.28;5056505;28;45444;-59
2021/07/02 08:36:26;;;;;;;;;25.75;21.25;;;;;23.36;49.16;101259.41;5056344;28;45378;-60
2021/07/02 08:38:52;;;;;;;;;23.75;21.75;;;;;23.36;49.17;101263.84;5056263;28;45492;-59
2021/07/02 08:41:17;;;;;;;;;23.50;22.50;;;;;23.36;48.96;101259.41;5056586;28;46095;-59
2021/07/02 08:43:47;;;;;;;;;25.75;23.75;;;;;23.38;49.10;101259.28;5056194;28;45409;-60
2021/07/02 08:46:14;;;;;;;;;19.25;17.00;;;;;23.40;49.26;101260.06;5055030;28;45431;-59
2021/07/02 08:48:40;;;;;;;;;26.25;22.25;;;;;23.37;48.95;101249.69;5056534;28;45379;-59
2021/07/02 08:51:08;;;;;;;;;20.50;19.25;;;;;23.39;48.79;101251.28;5056076;28;45393;-59
2021/07/02 08:53:34;;;;;;;;;25.00;22.50;;;;;23.42;48.83;101247.59;5056131;28;45942;-59
2021/07/02 08:56:01;;;;;;;;;24.25;22.25;;;;;23.40;48.89;101245.06;5054953;28;45236;-59
2021/07/02 08:58:27;;;;;;;;;21.00;20.75;;;;;23.42;48.87;101250.22;5056299;28;45231;-59
2021/07/02 09:00:53;;;;;;;;;23.50;23.00;;;;;23.41;48.85;101254.69;5055718;28;45330;-59
2021/07/02 09:03:35;;;;;;;;;20.25;19.00;;;;;23.41;48.84;101244.09;5056295;28;45412;-59
2021/07/02 09:06:10;;;;;;;;;24.75;20.25;;;;;23.42;48.73;101252.88;5054821;28;45324;-59
2021/07/02 09:08:36;;;;;;;;;22.75;19.25;;;;;23.43;48.92;101244.84;5056310;28;45563;-59
2021/07/02 09:11:25;;;;;;;;;24.25;21.50;;;;;23.43;48.74;101234.25;5055763;28;46119;-59
2021/07/02 09:13:50;;;;;;;;;24.00;21.00;;;;;23.43;48.76;101244.84;5050442;28;45425;-59
2021/07/02 09:16:21;;;;;;;;;20.25;19.00;;;;;23.43;48.69;101242.19;5056156;28;45443;-59
2021/07/02 09:18:46;;;;;;;;;21.25;21.25;;;;;23.44;48.82;101235.97;5056481;28;45378;-59
2021/07/02 09:21:25;;;;;;;;;23.25;21.75;;;;;23.45;48.66;101232.38;5055777;28;45342;-59
2021/07/02 09:23:51;;;;;;;;;24.00;21.75;;;;;23.45;48.92;101227.09;5056453;28;45821;-59
2021/07/02 09:26:43;;;;;;;;;26.50;22.00;;;;;23.46;48.82;101223.50;5058374;28;45432;-59
2021/07/02 09:29:16;;;;;;;;;20.25;20.25;;;;;23.46;48.77;101223.50;5059324;28;45304;-59
2021/07/02 09:31:41;;;;;;;;;24.25;19.50;;;;;23.45;48.82;101224.44;5059287;28;45319;-59
2021/07/02 09:34:07;;;;;;;;;17.00;15.75;;;;;23.45;48.53;101227.09;5059360;28;45408;-59
2021/07/02 09:36:32;;;;;;;;;20.50;17.50;;;;;23.48;48.61;101223.41;5059333;28;45250;-59
2021/07/02 09:38:58;;;;;;;;;19.00;17.00;;;;;23.47;48.45;101219.91;5059403;28;45455;-59
2021/07/02 09:41:33;;;;;;;;;23.75;20.50;;;;;23.47;48.68;101216.44;5058744;28;46168;-59
2021/07/02 09:44:11;;;;;;;;;23.25;19.00;;;;;23.49;48.37;101216.31;5059155;28;45939;-59
2021/07/02 09:46:37;;;;;;;;;23.75;22.00;;;;;23.47;48.56;101217.25;5059235;28;45363;-59
2021/07/02 09:49:02;;;;;;;;;19.75;19.75;;;;;23.47;48.39;101209.31;5059230;28;45379;-59
2021/07/02 09:51:28;;;;;;;;;22.75;21.50;;;;;23.46;48.44;101209.44;5057680;28;45447;-59
2021/07/02 09:54:07;;;;;;;;;22.25;20.75;;;;;23.49;48.44;101211.03;5057446;28;45585;-59
2021/07/02 09:56:33;;;;;;;;;19.00;19.00;;;;;23.47;48.34;101214.63;5058877;28;45436;-59
2021/07/02 09:58:58;;;;;;;;;19.50;18.50;;;;;23.49;48.15;101216.31;5057761;28;45420;-59
2021/07/02 10:01:29;;;;;;;;;20.25;19.75;;;;;23.50;48.17;101223.31;5058760;28;45902;-59
2021/07/02 10:04:07;;;;;;;;;25.75;19.75;;;;;23.47;48.35;101213.78;5058668;28;45366;-59
2021/07/02 10:06:32;;;;;;;;;21.25;21.25;;;;;23.49;48.51;101208.38;5058840;28;45343;-60
2021/07/02 10:09:00;;;;;;;;;21.50;21.50;;;;;23.45;48.60;101205.91;5058933;28;45303;-60
2021/07/02 10:11:26;;;;;;;;;18.00;16.50;;;;;23.45;48.17;101202.44;5058538;28;45430;-62
2021/07/02 10:13:51;;;;;;;;;20.00;18.75;;;;;23.45;48.40;101203.28;5057574;28;45435;-59
2021/07/02 10:16:17;;;;;;;;;21.50;19.00;;;;;23.46;48.33;101212.91;5058519;28;45266;-60
2021/07/02 10:18:48;;;;;;;;;22.50;19.00;;;;;23.46;48.30;101207.63;5058732;28;45454;-60
2021/07/02 10:21:14;;;;;;;;;18.75;17.75;;;;;23.46;48.25;101209.44;5058444;28;46046;-59
2021/07/02 10:23:42;;;;;;;;;19.50;19.50;;;;;23.44;48.50;101214.81;5058368;28;45360;-60
2021/07/02 10:26:08;;;;;;;;;20.50;19.25;;;;;23.46;48.29;101206.78;5058527;28;45421;-60
2021/07/02 10:28:37;;;;;;;;;19.25;19.25;;;;;23.45;48.57;101205.91;5058609;28;45335;-60
2021/07/02 10:31:04;;;;;;;;;17.25;17.25;;;;;23.45;48.43;101211.22;5058196;28;45394;-60
2021/07/02 10:33:30;;;;;;;;;18.25;18.00;;;;;23.44;48.06;101206.88;5058277;28;45403;-60
2021/07/02 10:36:01;;;;;;;;;18.75;16.25;;;;;23.45;48.37;101211.22;5057852;28;45455;-59
2021/07/02 10:38:34;;;;;;;;;16.75;15.75;;;;;23.44;48.46;101209.50;5058433;28;45742;-59
2021/07/02 10:41:10;;;;;;;;;17.25;17.25;;;;;23.47;48.45;101213.78;5058115;28;47023;-59
2021/07/02 10:43:36;;;;;;;;;20.00;19.75;;;;;23.47;48.35;101214.63;5058133;28;45240;-60
2021/07/02 10:46:07;;;;;;;;;18.50;18.25;;;;;23.49;48.15;101217.16;5058253;28;45251;-59
2021/07/02 10:48:53;;;;;;;;;21.50;18.25;;;;;23.49;48.19;101213.69;5057122;28;45429;-59
2021/07/02 10:51:31;;;;;;;;;17.25;16.75;;;;;23.49;48.49;101211.03;5056522;28;45271;-59
2021/07/02 10:54:12;;;;;;;;;21.50;18.75;;;;;23.47;48.37;101206.69;5058130;28;45292;-60
2021/07/02 10:56:38;;;;;;;;;17.25;17.00;;;;;23.49;48.09;101203.09;5058033;28;45315;-60
2021/07/02 10:59:04;;;;;;;;;16.50;16.25;;;;;23.47;47.98;101204.03;5058215;28;45312;-59
2021/07/02 11:01:32;;;;;;;;;14.75;14.75;;;;;23.49;48.30;101197.81;5057834;28;45383;-59
2021/07/02 11:04:35;;;;;;;;;20.50;18.00;;;;;23.49;48.11;101203.09;5057942;28;45370;-60
2021/07/02 11:07:03;;;;;;;;;19.50;17.75;;;;;23.49;48.18;101192.50;5058140;28;45774;-63
2021/07/02 11:09:50;;;;;;;;;17.50;16.50;;;;;23.49;48.11;101195.16;5057879;28;45516;-59